sensor_id;sensor_type;location;lat;lon;timestamp;pressure;altitude;pressure_sealevel;temperature;humidity
11444;BME280;5778;47.856;12.154;2023-06-10T00:02:13;95883.47;;;16.27;100.00
11444;BME280;5778;47.856;12.154;2023-06-10T00:04:39;95884.66;;;15.94;100.00
11444;BME280;5778;47.856;12.154;2023-06-10T00:07:07;95880.84;;;15.81;100.00
11444;BME280;5778;47.856;12.154;2023-06-10T00:09:34;95883.97;;;15.88;100.00
11444;BME280;5778;47.856;12.154;2023-06-10T00:12:04;95887.44;;;15.57;100.00
11444;BME280;5778;47.856;12.154;2023-06-10T00:14:32;95885.84;;;15.56;100.00
11444;BME280;5778;47.856;12.154;2023-06-10T00:16:59;95887.34;;;15.62;100.00
11444;BME280;5778;47.856;12.154;2023-06-10T00:19:26;95877.56;;;15.71;100.00
11444;BME280;5778;47.856;12.154;2023-06-10T00:21:55;95892.31;;;15.55;100.00
11444;BME280;5778;47.856;12.154;2023-06-10T00:24:23;95888.91;;;15.49;100.00
11444;BME280;5778;47.856;12.154;2023-06-10T00:26:50;95881.91;;;15.35;100.00
11444;BME280;5778;47.856;12.154;2023-06-10T00:29:19;95889.28;;;15.43;100.00
11444;BME280;5778;47.856;12.154;2023-06-10T00:31:46;95893.47;;;15.49;100.00
11444;BME280;5778;47.856;12.154;2023-06-10T00:34:13;95889.78;;;15.45;100.00
11444;BME280;5778;47.856;12.154;2023-06-10T00:36:40;95891.28;;;15.51;100.00
11444;BME280;5778;47.856;12.154;2023-06-10T00:39:08;95891.84;;;15.34;100.00
11444;BME280;5778;47.856;12.154;2023-06-10T00:41:36;95896.31;;;15.39;100.00
11444;BME280;5778;47.856;12.154;2023-06-10T00:44:03;95895.28;;;15.16;100.00
11444;BME280;5778;47.856;12.154;2023-06-10T00:46:32;95895.22;;;15.03;100.00
11444;BME280;5778;47.856;12.154;2023-06-10T00:48:59;95896.81;;;15.04;100.00
11444;BME280;5778;47.856;12.154;2023-06-10T00:51:27;95892.31;;;15.18;100.00
11444;BME280;5778;47.856;12.154;2023-06-10T00:53:54;95895.94;;;15.27;100.00
11444;BME280;5778;47.856;12.154;2023-06-10T00:56:21;95897.53;;;15.28;100.00
11444;BME280;5778;47.856;12.154;2023-06-10T00:58:49;95893.13;;;15.18;100.00
11444;BME280;5778;47.856;12.154;2023-06-10T01:01:16;95893.81;;;15.24;100.00
11444;BME280;5778;47.856;12.154;2023-06-10T01:03:47;95897.09;;;15.21;100.00
11444;BME280;5778;47.856;12.154;2023-06-10T01:06:20;95897.75;;;15.13;100.00
11444;BME280;5778;47.856;12.154;2023-06-10T01:08:55;95902.97;;;15.04;100.00
11444;BME280;5778;47.856;12.154;2023-06-10T01:11:28;95899.44;;;15.09;100.00
11444;BME280;5778;47.856;12.154;2023-06-10T01:13:58;95900.44;;;15.13;100.00
11444;BME280;5778;47.856;12.154;2023-06-10T01:16:25;95896.00;;;14.85;100.00
11444;BME280;5778;47.856;12.154;2023-06-10T01:18:53;95898.38;;;14.68;100.00
11444;BME280;5778;47.856;12.154;2023-06-10T01:21:22;95899.31;;;14.58;100.00
11444;BME280;5778;47.856;12.154;2023-06-10T01:23:51;95901.00;;;14.73;100.00
11444;BME280;5778;47.856;12.154;2023-06-10T01:26:20;95908.97;;;14.78;100.00
11444;BME280;5778;47.856;12.154;2023-06-10T01:28:53;95899.91;;;14.74;100.00
11444;BME280;5778;47.856;12.154;2023-06-10T01:31:30;95899.41;;;14.72;100.00
11444;BME280;5778;47.856;12.154;2023-06-10T01:34:03;95903.06;;;14.76;100.00
11444;BME280;5778;47.856;12.154;2023-06-10T01:36:35;95900.13;;;14.77;100.00
11444;BME280;5778;47.856;12.154;2023-06-10T01:39:04;95894.50;;;14.79;100.00
11444;BME280;5778;47.856;12.154;2023-06-10T01:41:31;95899.84;;;14.79;100.00
11444;BME280;5778;47.856;12.154;2023-06-10T01:43:59;95891.59;;;14.75;100.00
11444;BME280;5778;47.856;12.154;2023-06-10T01:46:26;95895.72;;;14.68;100.00
11444;BME280;5778;47.856;12.154;2023-06-10T01:48:52;95901.06;;;14.68;100.00
11444;BME280;5778;47.856;12.154;2023-06-10T01:51:19;95903.47;;;14.69;100.00
11444;BME280;5778;47.856;12.154;2023-06-10T01:53:48;95902.72;;;14.64;100.00
11444;BME280;5778;47.856;12.154;2023-06-10T01:56:15;95902.50;;;14.60;100.00
11444;BME280;5778;47.856;12.154;2023-06-10T01:58:45;95895.78;;;14.63;100.00
11444;BME280;5778;47.856;12.154;2023-06-10T02:01:12;95901.94;;;14.63;100.00
11444;BME280;5778;47.856;12.154;2023-06-10T02:03:39;95904.63;;;14.40;100.00
11444;BME280;5778;47.856;12.154;2023-06-10T02:06:09;95898.38;;;13.97;100.00
11444;BME280;5778;47.856;12.154;2023-06-10T02:08:36;95901.28;;;14.01;100.00
11444;BME280;5778;47.856;12.154;2023-06-10T02:11:04;95908.94;;;13.84;100.00
11444;BME280;5778;47.856;12.154;2023-06-10T02:13:32;95906.63;;;13.72;100.00
11444;BME280;5778;47.856;12.154;2023-06-10T02:15:59;95908.13;;;13.83;100.00
11444;BME280;5778;47.856;12.154;2023-06-10T02:18:28;95906.50;;;13.87;100.00
11444;BME280;5778;47.856;12.154;2023-06-10T02:20:55;95900.75;;;13.99;100.00
11444;BME280;5778;47.856;12.154;2023-06-10T02:23:22;95900.88;;;13.89;100.00
11444;BME280;5778;47.856;12.154;2023-06-10T02:25:49;95907.22;;;13.93;100.00
11444;BME280;5778;47.856;12.154;2023-06-10T02:28:18;95907.72;;;14.00;100.00
11444;BME280;5778;47.856;12.154;2023-06-10T02:30:45;95907.13;;;14.03;100.00
11444;BME280;5778;47.856;12.154;2023-06-10T02:33:13;95902.59;;;14.03;100.00
11444;BME280;5778;47.856;12.154;2023-06-10T02:35:41;95906.88;;;14.04;100.00
11444;BME280;5778;47.856;12.154;2023-06-10T02:38:08;95904.66;;;13.83;100.00
11444;BME280;5778;47.856;12.154;2023-06-10T02:40:36;95905.75;;;13.82;100.00
11444;BME280;5778;47.856;12.154;2023-06-10T02:43:03;95903.28;;;13.85;100.00
11444;BME280;5778;47.856;12.154;2023-06-10T02:45:34;95910.59;;;13.80;100.00
11444;BME280;5778;47.856;12.154;2023-06-10T02:48:03;95915.59;;;13.58;100.00
11444;BME280;5778;47.856;12.154;2023-06-10T02:50:31;95916.06;;;13.65;100.00
11444;BME280;5778;47.856;12.154;2023-06-10T02:53:06;95909.66;;;13.61;100.00
11444;BME280;5778;47.856;12.154;2023-06-10T02:55:36;95912.66;;;13.59;100.00
11444;BME280;5778;47.856;12.154;2023-06-10T02:58:08;95906.25;;;13.55;100.00
11444;BME280;5778;47.856;12.154;2023-06-10T03:00:37;95907.53;;;13.63;100.00
11444;BME280;5778;47.856;12.154;2023-06-10T03:03:09;95905.94;;;13.62;100.00
11444;BME280;5778;47.856;12.154;2023-06-10T03:05:45;95909.94;;;13.31;100.00
11444;BME280;5778;47.856;12.154;2023-06-10T03:08:13;95915.63;;;13.14;100.00
11444;BME280;5778;47.856;12.154;2023-06-10T03:10:42;95912.22;;;13.09;100.00
11444;BME280;5778;47.856;12.154;2023-06-10T03:13:13;95918.03;;;13.16;100.00
11444;BME280;5778;47.856;12.154;2023-06-10T03:15:43;95924.97;;;13.17;100.00
11444;BME280;5778;47.856;12.154;2023-06-10T03:18:15;95928.72;;;13.16;100.00
11444;BME280;5778;47.856;12.154;2023-06-10T03:20:43;95928.22;;;13.14;100.00
11444;BME280;5778;47.856;12.154;2023-06-10T03:23:10;95930.56;;;13.20;100.00
11444;BME280;5778;47.856;12.154;2023-06-10T03:25:38;95929.50;;;13.21;100.00
11444;BME280;5778;47.856;12.154;2023-06-10T03:28:05;95925.78;;;13.17;100.00
11444;BME280;5778;47.856;12.154;2023-06-10T03:30:35;95929.78;;;13.20;100.00
11444;BME280;5778;47.856;12.154;2023-06-10T03:33:03;95929.47;;;13.26;100.00
11444;BME280;5778;47.856;12.154;2023-06-10T03:35:31;95927.31;;;13.28;100.00
11444;BME280;5778;47.856;12.154;2023-06-10T03:38:00;95929.13;;;13.33;100.00
11444;BME280;5778;47.856;12.154;2023-06-10T03:40:28;95930.84;;;13.19;100.00
11444;BME280;5778;47.856;12.154;2023-06-10T03:42:56;95936.53;;;13.02;100.00
11444;BME280;5778;47.856;12.154;2023-06-10T03:45:22;95940.03;;;12.93;100.00
11444;BME280;5778;47.856;12.154;2023-06-10T03:47:50;95942.13;;;13.06;100.00
11444;BME280;5778;47.856;12.154;2023-06-10T03:50:23;95942.41;;;13.04;100.00
11444;BME280;5778;47.856;12.154;2023-06-10T03:52:51;95945.84;;;13.10;100.00
11444;BME280;5778;47.856;12.154;2023-06-10T03:55:22;95939.34;;;13.26;100.00
11444;BME280;5778;47.856;12.154;2023-06-10T03:57:50;95937.69;;;13.35;100.00
11444;BME280;5778;47.856;12.154;2023-06-10T04:00:18;95943.28;;;13.33;100.00
11444;BME280;5778;47.856;12.154;2023-06-10T04:02:50;95942.69;;;13.41;100.00
11444;BME280;5778;47.856;12.154;2023-06-10T04:05:36;95942.09;;;13.49;100.00
11444;BME280;5778;47.856;12.154;2023-06-10T04:08:03;95940.41;;;13.58;100.00
11444;BME280;5778;47.856;12.154;2023-06-10T04:10:30;95953.16;;;13.71;100.00
11444;BME280;5778;47.856;12.154;2023-06-10T04:12:57;95950.09;;;13.83;100.00
11444;BME280;5778;47.856;12.154;2023-06-10T04:15:29;95959.09;;;13.92;100.00
11444;BME280;5778;47.856;12.154;2023-06-10T04:17:58;95959.53;;;14.04;100.00
11444;BME280;5778;47.856;12.154;2023-06-10T04:20:26;95962.91;;;14.14;100.00
11444;BME280;5778;47.856;12.154;2023-06-10T04:22:55;95962.59;;;14.21;100.00
11444;BME280;5778;47.856;12.154;2023-06-10T04:25:22;95963.06;;;14.28;100.00
11444;BME280;5778;47.856;12.154;2023-06-10T04:27:50;95965.13;;;14.36;100.00
11444;BME280;5778;47.856;12.154;2023-06-10T04:30:17;95968.50;;;14.46;100.00
11444;BME280;5778;47.856;12.154;2023-06-10T04:32:44;95958.97;;;14.59;100.00
11444;BME280;5778;47.856;12.154;2023-06-10T04:35:15;95969.00;;;14.72;100.00
11444;BME280;5778;47.856;12.154;2023-06-10T04:37:44;95970.19;;;14.84;100.00
11444;BME280;5778;47.856;12.154;2023-06-10T04:40:13;95963.97;;;14.89;100.00
11444;BME280;5778;47.856;12.154;2023-06-10T04:42:41;95964.41;;;14.96;100.00
11444;BME280;5778;47.856;12.154;2023-06-10T04:45:09;95963.16;;;14.88;100.00
11444;BME280;5778;47.856;12.154;2023-06-10T04:47:36;95967.84;;;14.78;100.00
11444;BME280;5778;47.856;12.154;2023-06-10T04:50:05;95971.75;;;15.09;100.00
11444;BME280;5778;47.856;12.154;2023-06-10T04:52:32;95974.50;;;15.22;100.00
11444;BME280;5778;47.856;12.154;2023-06-10T04:55:00;95979.59;;;15.42;100.00
11444;BME280;5778;47.856;12.154;2023-06-10T04:57:29;95981.25;;;15.57;100.00
11444;BME280;5778;47.856;12.154;2023-06-10T04:59:56;95977.91;;;15.65;100.00
11444;BME280;5778;47.856;12.154;2023-06-10T05:02:23;95979.31;;;15.44;100.00
11444;BME280;5778;47.856;12.154;2023-06-10T05:04:49;95995.16;;;15.59;100.00
11444;BME280;5778;47.856;12.154;2023-06-10T05:07:16;95984.78;;;15.52;100.00
11444;BME280;5778;47.856;12.154;2023-06-10T05:09:43;95988.56;;;15.70;100.00
11444;BME280;5778;47.856;12.154;2023-06-10T05:12:10;95988.47;;;15.75;100.00
11444;BME280;5778;47.856;12.154;2023-06-10T05:14:38;95982.53;;;15.78;100.00
11444;BME280;5778;47.856;12.154;2023-06-10T05:17:05;95984.34;;;15.82;100.00
11444;BME280;5778;47.856;12.154;2023-06-10T05:19:32;95985.28;;;16.05;100.00
11444;BME280;5778;47.856;12.154;2023-06-10T05:22:01;95992.59;;;16.18;100.00
11444;BME280;5778;47.856;12.154;2023-06-10T05:24:28;95985.78;;;16.39;100.00
11444;BME280;5778;47.856;12.154;2023-06-10T05:26:55;95995.31;;;16.31;100.00
11444;BME280;5778;47.856;12.154;2023-06-10T05:29:21;95996.66;;;16.15;100.00
11444;BME280;5778;47.856;12.154;2023-06-10T05:31:50;95993.78;;;16.25;100.00
11444;BME280;5778;47.856;12.154;2023-06-10T05:34:17;95993.34;;;16.05;100.00
11444;BME280;5778;47.856;12.154;2023-06-10T05:36:44;95990.31;;;16.25;100.00
11444;BME280;5778;47.856;12.154;2023-06-10T05:39:11;95990.69;;;16.50;100.00
11444;BME280;5778;47.856;12.154;2023-06-10T05:41:37;95983.91;;;16.39;100.00
11444;BME280;5778;47.856;12.154;2023-06-10T05:44:04;95988.25;;;16.35;100.00
11444;BME280;5778;47.856;12.154;2023-06-10T05:46:31;95989.53;;;16.38;100.00
11444;BME280;5778;47.856;12.154;2023-06-10T05:48:59;95991.41;;;16.56;100.00
11444;BME280;5778;47.856;12.154;2023-06-10T05:51:26;95994.09;;;16.56;100.00
11444;BME280;5778;47.856;12.154;2023-06-10T05:53:54;95996.44;;;16.57;100.00
11444;BME280;5778;47.856;12.154;2023-06-10T05:56:20;95991.91;;;16.71;100.00
11444;BME280;5778;47.856;12.154;2023-06-10T05:58:48;95983.56;;;16.73;100.00
11444;BME280;5778;47.856;12.154;2023-06-10T06:01:14;95996.16;;;16.86;100.00
11444;BME280;5778;47.856;12.154;2023-06-10T06:03:41;95986.53;;;16.71;100.00
11444;BME280;5778;47.856;12.154;2023-06-10T06:06:10;95990.41;;;16.92;100.00
11444;BME280;5778;47.856;12.154;2023-06-10T06:08:36;95982.34;;;17.06;100.00
11444;BME280;5778;47.856;12.154;2023-06-10T06:11:03;95984.47;;;17.31;100.00
11444;BME280;5778;47.856;12.154;2023-06-10T06:13:30;95984.16;;;17.46;100.00
11444;BME280;5778;47.856;12.154;2023-06-10T06:15:57;95989.09;;;17.03;100.00
11444;BME280;5778;47.856;12.154;2023-06-10T06:18:24;95992.34;;;17.41;100.00
11444;BME280;5778;47.856;12.154;2023-06-10T06:20:50;95995.25;;;17.66;100.00
11444;BME280;5778;47.856;12.154;2023-06-10T06:23:19;96002.31;;;17.76;100.00
11444;BME280;5778;47.856;12.154;2023-06-10T06:25:46;95993.50;;;18.06;100.00
11444;BME280;5778;47.856;12.154;2023-06-10T06:28:13;95991.06;;;17.96;100.00
11444;BME280;5778;47.856;12.154;2023-06-10T06:30:40;95995.94;;;18.16;100.00
11444;BME280;5778;47.856;12.154;2023-06-10T06:33:06;95992.59;;;18.63;100.00
11444;BME280;5778;47.856;12.154;2023-06-10T06:35:33;95986.91;;;18.73;100.00
11444;BME280;5778;47.856;12.154;2023-06-10T06:38:00;95986.97;;;18.51;100.00
11444;BME280;5778;47.856;12.154;2023-06-10T06:40:31;95983.19;;;18.82;100.00
11444;BME280;5778;47.856;12.154;2023-06-10T06:42:57;95983.09;;;19.04;100.00
11444;BME280;5778;47.856;12.154;2023-06-10T06:45:57;95984.50;;;19.02;100.00
11444;BME280;5778;47.856;12.154;2023-06-10T06:48:24;95983.44;;;19.20;100.00
11444;BME280;5778;47.856;12.154;2023-06-10T06:50:51;95981.34;;;19.17;100.00
11444;BME280;5778;47.856;12.154;2023-06-10T06:53:18;95982.63;;;19.19;100.00
11444;BME280;5778;47.856;12.154;2023-06-10T06:55:46;95988.81;;;19.11;100.00
11444;BME280;5778;47.856;12.154;2023-06-10T06:58:13;95985.63;;;19.09;100.00
11444;BME280;5778;47.856;12.154;2023-06-10T07:00:40;95998.09;;;19.53;100.00
11444;BME280;5778;47.856;12.154;2023-06-10T07:03:07;95991.94;;;19.78;100.00
11444;BME280;5778;47.856;12.154;2023-06-10T07:05:37;95989.53;;;20.19;100.00
11444;BME280;5778;47.856;12.154;2023-06-10T07:08:05;95990.81;;;20.13;100.00
11444;BME280;5778;47.856;12.154;2023-06-10T07:10:32;95987.47;;;19.48;100.00
11444;BME280;5778;47.856;12.154;2023-06-10T07:13:00;95985.09;;;19.63;100.00
11444;BME280;5778;47.856;12.154;2023-06-10T07:15:27;95990.81;;;19.96;100.00
11444;BME280;5778;47.856;12.154;2023-06-10T07:17:54;95988.75;;;20.01;100.00
11444;BME280;5778;47.856;12.154;2023-06-10T07:20:21;95987.53;;;20.07;100.00
11444;BME280;5778;47.856;12.154;2023-06-10T07:22:48;95992.41;;;20.05;100.00
11444;BME280;5778;47.856;12.154;2023-06-10T07:25:15;95987.78;;;19.63;100.00
11444;BME280;5778;47.856;12.154;2023-06-10T07:27:42;95988.44;;;19.77;100.00
11444;BME280;5778;47.856;12.154;2023-06-10T07:30:11;95993.03;;;20.28;100.00
11444;BME280;5778;47.856;12.154;2023-06-10T07:32:38;95997.34;;;20.20;100.00
11444;BME280;5778;47.856;12.154;2023-06-10T07:35:09;95998.88;;;20.38;100.00
11444;BME280;5778;47.856;12.154;2023-06-10T07:37:37;95996.16;;;20.47;100.00
11444;BME280;5778;47.856;12.154;2023-06-10T07:40:04;95997.72;;;20.65;100.00
11444;BME280;5778;47.856;12.154;2023-06-10T07:42:32;95999.34;;;20.95;100.00
11444;BME280;5778;47.856;12.154;2023-06-10T07:44:59;96002.28;;;21.19;100.00
11444;BME280;5778;47.856;12.154;2023-06-10T07:47:27;96006.34;;;20.50;100.00
11444;BME280;5778;47.856;12.154;2023-06-10T07:49:54;95997.09;;;20.51;100.00
11444;BME280;5778;47.856;12.154;2023-06-10T07:52:21;95996.38;;;21.46;100.00
11444;BME280;5778;47.856;12.154;2023-06-10T07:54:47;95999.03;;;21.54;100.00
11444;BME280;5778;47.856;12.154;2023-06-10T07:57:15;95994.00;;;21.44;100.00
11444;BME280;5778;47.856;12.154;2023-06-10T07:59:42;95988.47;;;21.41;100.00
11444;BME280;5778;47.856;12.154;2023-06-10T08:02:09;95995.25;;;21.76;100.00
11444;BME280;5778;47.856;12.154;2023-06-10T08:04:38;95993.41;;;21.88;100.00
11444;BME280;5778;47.856;12.154;2023-06-10T08:07:05;95991.63;;;21.92;100.00
11444;BME280;5778;47.856;12.154;2023-06-10T08:09:31;95984.84;;;21.57;100.00
11444;BME280;5778;47.856;12.154;2023-06-10T08:11:58;95989.75;;;21.35;100.00
11444;BME280;5778;47.856;12.154;2023-06-10T08:14:25;95995.41;;;21.21;100.00
11444;BME280;5778;47.856;12.154;2023-06-10T08:16:52;95993.56;;;21.63;100.00
11444;BME280;5778;47.856;12.154;2023-06-10T08:19:19;95985.97;;;22.18;100.00
11444;BME280;5778;47.856;12.154;2023-06-10T08:21:47;95994.03;;;22.71;100.00
11444;BME280;5778;47.856;12.154;2023-06-10T08:24:15;95999.94;;;22.85;100.00
11444;BME280;5778;47.856;12.154;2023-06-10T08:26:44;95990.00;;;23.13;100.00
11444;BME280;5778;47.856;12.154;2023-06-10T08:29:11;95991.16;;;22.88;100.00
11444;BME280;5778;47.856;12.154;2023-06-10T08:31:41;95986.25;;;21.84;100.00
11444;BME280;5778;47.856;12.154;2023-06-10T08:34:08;95990.75;;;22.33;100.00
11444;BME280;5778;47.856;12.154;2023-06-10T08:36:35;95983.78;;;22.76;100.00
11444;BME280;5778;47.856;12.154;2023-06-10T08:39:04;95986.63;;;23.16;100.00
11444;BME280;5778;47.856;12.154;2023-06-10T08:41:35;95986.28;;;22.93;100.00
11444;BME280;5778;47.856;12.154;2023-06-10T08:44:10;95983.25;;;23.19;100.00
11444;BME280;5778;47.856;12.154;2023-06-10T08:46:41;95984.28;;;22.46;100.00
11444;BME280;5778;47.856;12.154;2023-06-10T08:49:17;95986.19;;;22.45;100.00
11444;BME280;5778;47.856;12.154;2023-06-10T08:51:48;95990.81;;;22.24;100.00
11444;BME280;5778;47.856;12.154;2023-06-10T08:54:22;95981.19;;;22.80;100.00
11444;BME280;5778;47.856;12.154;2023-06-10T08:56:54;95977.69;;;23.03;100.00
11444;BME280;5778;47.856;12.154;2023-06-10T08:59:22;95984.69;;;23.64;100.00
11444;BME280;5778;47.856;12.154;2023-06-10T09:01:50;95976.88;;;23.63;100.00
11444;BME280;5778;47.856;12.154;2023-06-10T09:04:18;95979.25;;;23.64;100.00
11444;BME280;5778;47.856;12.154;2023-06-10T09:06:46;95982.50;;;23.94;100.00
11444;BME280;5778;47.856;12.154;2023-06-10T09:09:14;95986.13;;;23.86;100.00
11444;BME280;5778;47.856;12.154;2023-06-10T09:11:43;95976.09;;;24.14;100.00
11444;BME280;5778;47.856;12.154;2023-06-10T09:14:10;95981.84;;;24.83;100.00
11444;BME280;5778;47.856;12.154;2023-06-10T09:16:38;95973.78;;;25.33;100.00
11444;BME280;5778;47.856;12.154;2023-06-10T09:19:06;95968.31;;;26.02;100.00
11444;BME280;5778;47.856;12.154;2023-06-10T09:21:33;95974.63;;;26.44;92.62
11444;BME280;5778;47.856;12.154;2023-06-10T09:24:01;95966.66;;;26.35;80.88
11444;BME280;5778;47.856;12.154;2023-06-10T09:26:29;95965.22;;;26.83;87.71
11444;BME280;5778;47.856;12.154;2023-06-10T09:29:02;95981.44;;;27.17;81.60
11444;BME280;5778;47.856;12.154;2023-06-10T09:31:30;95967.25;;;26.86;79.52
11444;BME280;5778;47.856;12.154;2023-06-10T09:34:05;95962.19;;;27.33;71.14
11444;BME280;5778;47.856;12.154;2023-06-10T09:36:32;95959.94;;;27.38;71.13
11444;BME280;5778;47.856;12.154;2023-06-10T09:38:59;95967.78;;;27.69;63.88
11444;BME280;5778;47.856;12.154;2023-06-10T09:41:32;95961.00;;;26.25;82.68
11444;BME280;5778;47.856;12.154;2023-06-10T09:44:00;95964.53;;;27.12;83.33
11444;BME280;5778;47.856;12.154;2023-06-10T09:46:31;95961.16;;;26.32;90.38
11444;BME280;5778;47.856;12.154;2023-06-10T09:48:58;95968.84;;;26.68;95.90
11444;BME280;5778;47.856;12.154;2023-06-10T09:51:25;95959.97;;;26.52;90.85
11444;BME280;5778;47.856;12.154;2023-06-10T09:53:53;95970.53;;;25.12;100.00
11444;BME280;5778;47.856;12.154;2023-06-10T09:56:20;95974.22;;;24.18;100.00
11444;BME280;5778;47.856;12.154;2023-06-10T09:58:49;95958.78;;;23.67;100.00
11444;BME280;5778;47.856;12.154;2023-06-10T10:01:20;95970.28;;;23.76;100.00
11444;BME280;5778;47.856;12.154;2023-06-10T10:03:50;95976.81;;;23.99;100.00
11444;BME280;5778;47.856;12.154;2023-06-10T10:06:18;95970.16;;;24.24;100.00
11444;BME280;5778;47.856;12.154;2023-06-10T10:08:48;95978.56;;;24.19;100.00
11444;BME280;5778;47.856;12.154;2023-06-10T10:11:17;95981.47;;;24.26;100.00
11444;BME280;5778;47.856;12.154;2023-06-10T10:13:45;95973.53;;;23.54;100.00
11444;BME280;5778;47.856;12.154;2023-06-10T10:16:15;95980.88;;;24.05;100.00
11444;BME280;5778;47.856;12.154;2023-06-10T10:18:46;95976.94;;;24.18;100.00
11444;BME280;5778;47.856;12.154;2023-06-10T10:21:21;95976.56;;;24.04;100.00
11444;BME280;5778;47.856;12.154;2023-06-10T10:23:53;95982.25;;;23.99;100.00
11444;BME280;5778;47.856;12.154;2023-06-10T10:26:21;95985.22;;;23.82;100.00
11444;BME280;5778;47.856;12.154;2023-06-10T10:28:53;95986.47;;;24.24;100.00
11444;BME280;5778;47.856;12.154;2023-06-10T10:31:27;95981.16;;;24.43;100.00
11444;BME280;5778;47.856;12.154;2023-06-10T10:33:58;95975.38;;;24.44;100.00
11444;BME280;5778;47.856;12.154;2023-06-10T10:36:27;95972.78;;;25.10;100.00
11444;BME280;5778;47.856;12.154;2023-06-10T10:38:54;95973.47;;;25.53;99.03
11444;BME280;5778;47.856;12.154;2023-06-10T10:41:22;95973.47;;;25.53;100.00
11444;BME280;5778;47.856;12.154;2023-06-10T10:43:52;95966.66;;;25.13;99.92
11444;BME280;5778;47.856;12.154;2023-06-10T10:46:20;95968.50;;;24.78;100.00
11444;BME280;5778;47.856;12.154;2023-06-10T10:48:52;95968.59;;;24.97;100.00
11444;BME280;5778;47.856;12.154;2023-06-10T10:51:22;95960.44;;;24.97;98.36
11444;BME280;5778;47.856;12.154;2023-06-10T10:54:11;95963.88;;;25.09;95.37
11444;BME280;5778;47.856;12.154;2023-06-10T10:56:39;95969.72;;;25.27;96.59
11444;BME280;5778;47.856;12.154;2023-06-10T10:59:08;95961.84;;;25.56;93.95
11444;BME280;5778;47.856;12.154;2023-06-10T11:01:42;95964.38;;;25.15;89.74
11444;BME280;5778;47.856;12.154;2023-06-10T11:04:11;95963.06;;;24.62;93.29
11444;BME280;5778;47.856;12.154;2023-06-10T11:06:40;95962.09;;;24.86;90.75
11444;BME280;5778;47.856;12.154;2023-06-10T11:09:28;95962.81;;;24.40;100.00
11444;BME280;5778;47.856;12.154;2023-06-10T11:11:56;95956.91;;;24.96;97.29
11444;BME280;5778;47.856;12.154;2023-06-10T11:14:27;95954.75;;;25.86;76.78
11444;BME280;5778;47.856;12.154;2023-06-10T11:16:56;95953.22;;;26.46;90.88
11444;BME280;5778;47.856;12.154;2023-06-10T11:19:33;95945.97;;;26.53;92.49
11444;BME280;5778;47.856;12.154;2023-06-10T11:22:05;95948.44;;;27.52;83.37
11444;BME280;5778;47.856;12.154;2023-06-10T11:24:32;95948.66;;;28.28;74.36
11444;BME280;5778;47.856;12.154;2023-06-10T11:27:15;95947.06;;;28.97;65.94
11444;BME280;5778;47.856;12.154;2023-06-10T11:29:56;95949.84;;;27.98;61.19
11444;BME280;5778;47.856;12.154;2023-06-10T11:32:23;95952.97;;;26.96;61.93
11444;BME280;5778;47.856;12.154;2023-06-10T11:34:52;95943.28;;;26.76;60.58
11444;BME280;5778;47.856;12.154;2023-06-10T11:37:21;95944.03;;;26.54;61.80
11444;BME280;5778;47.856;12.154;2023-06-10T11:39:51;95945.28;;;26.79;57.69
11444;BME280;5778;47.856;12.154;2023-06-10T11:42:18;95942.25;;;26.84;63.22
11444;BME280;5778;47.856;12.154;2023-06-10T11:44:49;95936.59;;;26.96;62.26
11444;BME280;5778;47.856;12.154;2023-06-10T11:47:16;95934.97;;;27.14;62.17
11444;BME280;5778;47.856;12.154;2023-06-10T11:49:43;95936.03;;;27.58;63.77
11444;BME280;5778;47.856;12.154;2023-06-10T11:52:11;95938.81;;;27.61;63.27
11444;BME280;5778;47.856;12.154;2023-06-10T11:54:39;95936.69;;;26.77;61.41
11444;BME280;5778;47.856;12.154;2023-06-10T11:57:06;95930.41;;;26.54;64.19
11444;BME280;5778;47.856;12.154;2023-06-10T11:59:34;95937.44;;;27.00;63.53
11444;BME280;5778;47.856;12.154;2023-06-10T12:02:01;95930.00;;;26.33;66.51
11444;BME280;5778;47.856;12.154;2023-06-10T12:04:28;95932.69;;;26.71;66.26
11444;BME280;5778;47.856;12.154;2023-06-10T12:06:55;95935.84;;;26.54;66.43
11444;BME280;5778;47.856;12.154;2023-06-10T12:09:24;95930.88;;;26.37;70.84
11444;BME280;5778;47.856;12.154;2023-06-10T12:11:55;95929.47;;;26.05;76.88
11444;BME280;5778;47.856;12.154;2023-06-10T12:14:52;95932.34;;;25.77;72.80
11444;BME280;5778;47.856;12.154;2023-06-10T12:17:23;95941.69;;;25.76;82.80
11444;BME280;5778;47.856;12.154;2023-06-10T12:19:51;95936.19;;;25.92;83.37
11444;BME280;5778;47.856;12.154;2023-06-10T12:22:18;95933.31;;;26.23;89.91
11444;BME280;5778;47.856;12.154;2023-06-10T12:24:57;95937.72;;;26.69;86.95
11444;BME280;5778;47.856;12.154;2023-06-10T12:27:27;95935.53;;;26.78;92.20
11444;BME280;5778;47.856;12.154;2023-06-10T12:29:55;95939.16;;;26.63;88.61
11444;BME280;5778;47.856;12.154;2023-06-10T12:32:35;95938.66;;;26.38;93.63
11444;BME280;5778;47.856;12.154;2023-06-10T12:35:04;95933.41;;;26.49;95.33
11444;BME280;5778;47.856;12.154;2023-06-10T12:37:32;95945.50;;;25.72;100.00
11444;BME280;5778;47.856;12.154;2023-06-10T12:40:01;95939.56;;;26.04;100.00
11444;BME280;5778;47.856;12.154;2023-06-10T12:42:30;95940.16;;;26.13;100.00
11444;BME280;5778;47.856;12.154;2023-06-10T12:45:00;95935.16;;;25.62;100.00
11444;BME280;5778;47.856;12.154;2023-06-10T12:47:31;95939.97;;;25.68;100.00
11444;BME280;5778;47.856;12.154;2023-06-10T12:50:01;95945.84;;;25.89;100.00
11444;BME280;5778;47.856;12.154;2023-06-10T12:52:28;95939.06;;;26.18;98.75
11444;BME280;5778;47.856;12.154;2023-06-10T12:54:55;95936.09;;;25.88;100.00
11444;BME280;5778;47.856;12.154;2023-06-10T12:57:24;95941.16;;;25.52;100.00
11444;BME280;5778;47.856;12.154;2023-06-10T12:59:52;95932.88;;;25.83;100.00
11444;BME280;5778;47.856;12.154;2023-06-10T13:02:22;95939.16;;;25.68;100.00